sensor_id;sensor_type;location;lat;lon;timestamp;temperature;humidity
76293;DHT22;67256;51.154;4.164;2024-01-30T00:01:51;11.40;96.40
76293;DHT22;67256;51.154;4.164;2024-01-30T00:04:17;11.40;96.60
76293;DHT22;67256;51.154;4.164;2024-01-30T00:06:43;11.40;96.30
76293;DHT22;67256;51.154;4.164;2024-01-30T00:09:09;11.40;96.40
76293;DHT22;67256;51.154;4.164;2024-01-30T00:11:36;11.40;96.60
76293;DHT22;67256;51.154;4.164;2024-01-30T00:14:03;11.40;96.70
76293;DHT22;67256;51.154;4.164;2024-01-30T00:16:28;11.50;96.30
76293;DHT22;67256;51.154;4.164;2024-01-30T00:18:54;11.50;96.30
76293;DHT22;67256;51.154;4.164;2024-01-30T00:21:21;11.50;96.20
76293;DHT22;67256;51.154;4.164;2024-01-30T00:23:47;11.50;96.20
76293;DHT22;67256;51.154;4.164;2024-01-30T00:26:14;11.60;96.10
76293;DHT22;67256;51.154;4.164;2024-01-30T00:28:42;11.60;96.10
76293;DHT22;67256;51.154;4.164;2024-01-30T00:31:08;11.60;96.10
76293;DHT22;67256;51.154;4.164;2024-01-30T00:33:41;11.50;96.10
76293;DHT22;67256;51.154;4.164;2024-01-30T00:36:08;11.60;96.10
76293;DHT22;67256;51.154;4.164;2024-01-30T00:38:34;11.60;96.10
76293;DHT22;67256;51.154;4.164;2024-01-30T00:41:00;11.60;95.90
76293;DHT22;67256;51.154;4.164;2024-01-30T00:43:27;11.50;96.20
76293;DHT22;67256;51.154;4.164;2024-01-30T00:45:53;11.50;96.10
76293;DHT22;67256;51.154;4.164;2024-01-30T00:48:19;11.50;96.30
76293;DHT22;67256;51.154;4.164;2024-01-30T00:50:45;11.50;96.30
76293;DHT22;67256;51.154;4.164;2024-01-30T00:53:11;11.50;96.20
76293;DHT22;67256;51.154;4.164;2024-01-30T00:55:37;11.30;96.50
76293;DHT22;67256;51.154;4.164;2024-01-30T00:58:03;11.30;96.60
76293;DHT22;67256;51.154;4.164;2024-01-30T01:00:29;11.30;96.60
76293;DHT22;67256;51.154;4.164;2024-01-30T01:02:56;11.40;96.40
76293;DHT22;67256;51.154;4.164;2024-01-30T01:05:22;11.30;96.50
76293;DHT22;67256;51.154;4.164;2024-01-30T01:07:48;11.40;96.40
76293;DHT22;67256;51.154;4.164;2024-01-30T01:10:14;11.40;96.30
76293;DHT22;67256;51.154;4.164;2024-01-30T01:12:41;11.40;96.40
76293;DHT22;67256;51.154;4.164;2024-01-30T01:15:07;11.50;96.30
76293;DHT22;67256;51.154;4.164;2024-01-30T01:17:39;11.50;96.10
76293;DHT22;67256;51.154;4.164;2024-01-30T01:20:07;11.40;96.30
76293;DHT22;67256;51.154;4.164;2024-01-30T01:22:34;11.30;96.30
76293;DHT22;67256;51.154;4.164;2024-01-30T01:25:00;11.30;96.70
76293;DHT22;67256;51.154;4.164;2024-01-30T01:27:27;11.20;96.80
76293;DHT22;67256;51.154;4.164;2024-01-30T01:29:53;11.30;96.80
76293;DHT22;67256;51.154;4.164;2024-01-30T01:32:19;11.40;96.50
76293;DHT22;67256;51.154;4.164;2024-01-30T01:34:45;11.40;96.40
76293;DHT22;67256;51.154;4.164;2024-01-30T01:37:10;11.30;96.50
76293;DHT22;67256;51.154;4.164;2024-01-30T01:39:36;11.40;96.50
76293;DHT22;67256;51.154;4.164;2024-01-30T01:42:02;11.30;96.50
76293;DHT22;67256;51.154;4.164;2024-01-30T01:44:29;11.40;96.50
76293;DHT22;67256;51.154;4.164;2024-01-30T01:46:55;11.40;96.20
76293;DHT22;67256;51.154;4.164;2024-01-30T01:49:24;11.40;96.50
76293;DHT22;67256;51.154;4.164;2024-01-30T01:51:51;11.30;96.50
76293;DHT22;67256;51.154;4.164;2024-01-30T01:54:19;11.40;96.40
76293;DHT22;67256;51.154;4.164;2024-01-30T01:56:45;11.40;96.50
76293;DHT22;67256;51.154;4.164;2024-01-30T01:59:11;11.40;96.40
76293;DHT22;67256;51.154;4.164;2024-01-30T02:01:38;11.40;96.40
76293;DHT22;67256;51.154;4.164;2024-01-30T02:04:07;11.40;96.40
76293;DHT22;67256;51.154;4.164;2024-01-30T02:06:36;11.40;96.20
76293;DHT22;67256;51.154;4.164;2024-01-30T02:09:03;11.40;96.30
76293;DHT22;67256;51.154;4.164;2024-01-30T02:11:30;11.40;96.50
76293;DHT22;67256;51.154;4.164;2024-01-30T02:13:57;11.30;96.50
76293;DHT22;67256;51.154;4.164;2024-01-30T02:16:23;11.40;96.50
76293;DHT22;67256;51.154;4.164;2024-01-30T02:18:49;11.40;96.40
76293;DHT22;67256;51.154;4.164;2024-01-30T02:21:16;11.50;96.40
76293;DHT22;67256;51.154;4.164;2024-01-30T02:23:44;11.50;96.20
76293;DHT22;67256;51.154;4.164;2024-01-30T02:26:11;11.50;96.10
76293;DHT22;67256;51.154;4.164;2024-01-30T02:28:37;11.50;96.10
76293;DHT22;67256;51.154;4.164;2024-01-30T02:31:04;11.50;96.30
76293;DHT22;67256;51.154;4.164;2024-01-30T02:33:30;11.50;96.20
76293;DHT22;67256;51.154;4.164;2024-01-30T02:35:55;11.50;96.40
76293;DHT22;67256;51.154;4.164;2024-01-30T02:38:21;11.50;96.30
76293;DHT22;67256;51.154;4.164;2024-01-30T02:40:49;11.50;96.30
76293;DHT22;67256;51.154;4.164;2024-01-30T02:43:16;11.50;96.40
76293;DHT22;67256;51.154;4.164;2024-01-30T02:45:42;11.60;96.30
76293;DHT22;67256;51.154;4.164;2024-01-30T02:48:08;11.60;96.30
76293;DHT22;67256;51.154;4.164;2024-01-30T02:50:34;11.60;96.30
76293;DHT22;67256;51.154;4.164;2024-01-30T02:53:00;11.60;96.30
76293;DHT22;67256;51.154;4.164;2024-01-30T02:55:25;11.60;96.20
76293;DHT22;67256;51.154;4.164;2024-01-30T02:57:51;11.60;96.50
76293;DHT22;67256;51.154;4.164;2024-01-30T03:00:19;11.50;96.50
76293;DHT22;67256;51.154;4.164;2024-01-30T03:02:45;11.50;96.50
76293;DHT22;67256;51.154;4.164;2024-01-30T03:05:11;11.60;96.40
76293;DHT22;67256;51.154;4.164;2024-01-30T03:07:37;11.60;96.60
76293;DHT22;67256;51.154;4.164;2024-01-30T03:10:04;11.60;96.50
76293;DHT22;67256;51.154;4.164;2024-01-30T03:12:30;11.60;96.60
76293;DHT22;67256;51.154;4.164;2024-01-30T03:14:56;11.70;96.60
76293;DHT22;67256;51.154;4.164;2024-01-30T03:17:22;11.70;96.40
76293;DHT22;67256;51.154;4.164;2024-01-30T03:19:47;11.70;96.40
76293;DHT22;67256;51.154;4.164;2024-01-30T03:22:13;11.80;96.40
76293;DHT22;67256;51.154;4.164;2024-01-30T03:24:39;11.70;96.60
76293;DHT22;67256;51.154;4.164;2024-01-30T03:27:05;11.70;96.40
76293;DHT22;67256;51.154;4.164;2024-01-30T03:29:30;11.70;96.50
76293;DHT22;67256;51.154;4.164;2024-01-30T03:31:56;11.60;96.70
76293;DHT22;67256;51.154;4.164;2024-01-30T03:34:22;11.70;96.70
76293;DHT22;67256;51.154;4.164;2024-01-30T03:36:48;11.70;96.70
76293;DHT22;67256;51.154;4.164;2024-01-30T03:39:14;11.70;96.50
76293;DHT22;67256;51.154;4.164;2024-01-30T03:41:42;11.70;96.50
76293;DHT22;67256;51.154;4.164;2024-01-30T03:44:10;11.70;96.70
76293;DHT22;67256;51.154;4.164;2024-01-30T03:46:35;11.70;96.60
76293;DHT22;67256;51.154;4.164;2024-01-30T03:49:01;11.70;96.80
76293;DHT22;67256;51.154;4.164;2024-01-30T03:51:27;11.70;96.60
76293;DHT22;67256;51.154;4.164;2024-01-30T03:53:53;11.70;96.70
76293;DHT22;67256;51.154;4.164;2024-01-30T03:56:18;11.70;96.60
76293;DHT22;67256;51.154;4.164;2024-01-30T03:58:44;11.80;96.60
76293;DHT22;67256;51.154;4.164;2024-01-30T04:01:14;11.80;96.50
76293;DHT22;67256;51.154;4.164;2024-01-30T04:03:40;11.80;96.50
76293;DHT22;67256;51.154;4.164;2024-01-30T04:06:06;11.70;96.70
76293;DHT22;67256;51.154;4.164;2024-01-30T04:08:32;11.60;97.00
76293;DHT22;67256;51.154;4.164;2024-01-30T04:10:58;11.70;96.90
76293;DHT22;67256;51.154;4.164;2024-01-30T04:13:23;11.60;96.80
76293;DHT22;67256;51.154;4.164;2024-01-30T04:15:49;11.70;96.80
76293;DHT22;67256;51.154;4.164;2024-01-30T04:18:15;11.80;96.60
76293;DHT22;67256;51.154;4.164;2024-01-30T04:20:40;11.80;96.60
76293;DHT22;67256;51.154;4.164;2024-01-30T04:23:07;11.60;97.00
76293;DHT22;67256;51.154;4.164;2024-01-30T04:25:32;11.70;96.90
76293;DHT22;67256;51.154;4.164;2024-01-30T04:27:58;11.60;97.10
76293;DHT22;67256;51.154;4.164;2024-01-30T04:30:24;11.50;97.20
76293;DHT22;67256;51.154;4.164;2024-01-30T04:32:49;11.60;97.10
76293;DHT22;67256;51.154;4.164;2024-01-30T04:35:15;11.60;97.20
76293;DHT22;67256;51.154;4.164;2024-01-30T04:37:41;11.60;97.10
76293;DHT22;67256;51.154;4.164;2024-01-30T04:40:07;11.70;97.10
76293;DHT22;67256;51.154;4.164;2024-01-30T04:42:33;11.60;97.20
76293;DHT22;67256;51.154;4.164;2024-01-30T04:44:59;11.60;97.10
76293;DHT22;67256;51.154;4.164;2024-01-30T04:47:24;11.60;97.00
76293;DHT22;67256;51.154;4.164;2024-01-30T04:49:51;11.60;97.20
76293;DHT22;67256;51.154;4.164;2024-01-30T04:52:17;11.60;97.30
76293;DHT22;67256;51.154;4.164;2024-01-30T04:54:42;11.60;97.10
76293;DHT22;67256;51.154;4.164;2024-01-30T04:57:08;11.70;97.10
76293;DHT22;67256;51.154;4.164;2024-01-30T04:59:37;11.70;97.00
76293;DHT22;67256;51.154;4.164;2024-01-30T05:02:03;11.80;96.70
76293;DHT22;67256;51.154;4.164;2024-01-30T05:04:29;11.70;97.00
76293;DHT22;67256;51.154;4.164;2024-01-30T05:06:55;11.70;96.90
76293;DHT22;67256;51.154;4.164;2024-01-30T05:09:21;11.70;96.90
76293;DHT22;67256;51.154;4.164;2024-01-30T05:11:46;11.70;97.20
76293;DHT22;67256;51.154;4.164;2024-01-30T05:14:12;11.70;97.10
76293;DHT22;67256;51.154;4.164;2024-01-30T05:16:40;11.60;97.00
76293;DHT22;67256;51.154;4.164;2024-01-30T05:19:06;11.50;97.40
76293;DHT22;67256;51.154;4.164;2024-01-30T05:21:32;11.60;97.30
76293;DHT22;67256;51.154;4.164;2024-01-30T05:23:58;11.70;97.10
76293;DHT22;67256;51.154;4.164;2024-01-30T05:26:23;11.70;96.80
76293;DHT22;67256;51.154;4.164;2024-01-30T05:28:49;11.80;96.90
76293;DHT22;67256;51.154;4.164;2024-01-30T05:31:15;11.80;96.80
76293;DHT22;67256;51.154;4.164;2024-01-30T05:33:40;11.80;96.70
76293;DHT22;67256;51.154;4.164;2024-01-30T05:36:06;11.80;96.90
76293;DHT22;67256;51.154;4.164;2024-01-30T05:38:32;11.80;96.60
76293;DHT22;67256;51.154;4.164;2024-01-30T05:40:58;11.80;96.70
76293;DHT22;67256;51.154;4.164;2024-01-30T05:43:24;11.80;96.70
76293;DHT22;67256;51.154;4.164;2024-01-30T05:45:51;11.80;96.60
76293;DHT22;67256;51.154;4.164;2024-01-30T05:48:17;11.70;96.90
76293;DHT22;67256;51.154;4.164;2024-01-30T05:50:43;11.60;96.90
76293;DHT22;67256;51.154;4.164;2024-01-30T05:53:09;11.60;97.20
76293;DHT22;67256;51.154;4.164;2024-01-30T05:55:34;11.60;97.10
76293;DHT22;67256;51.154;4.164;2024-01-30T05:58:00;11.70;96.90
76293;DHT22;67256;51.154;4.164;2024-01-30T06:00:25;11.70;96.90
76293;DHT22;67256;51.154;4.164;2024-01-30T06:02:51;11.70;96.90
76293;DHT22;67256;51.154;4.164;2024-01-30T06:05:17;11.70;96.60
76293;DHT22;67256;51.154;4.164;2024-01-30T06:07:43;11.80;96.70
76293;DHT22;67256;51.154;4.164;2024-01-30T06:10:09;11.80;96.70
76293;DHT22;67256;51.154;4.164;2024-01-30T06:12:37;11.80;96.60
76293;DHT22;67256;51.154;4.164;2024-01-30T06:15:04;11.80;96.70
76293;DHT22;67256;51.154;4.164;2024-01-30T06:17:29;11.80;96.60
76293;DHT22;67256;51.154;4.164;2024-01-30T06:19:55;11.80;96.60
76293;DHT22;67256;51.154;4.164;2024-01-30T06:22:21;11.80;96.40
76293;DHT22;67256;51.154;4.164;2024-01-30T06:24:47;11.80;96.60
76293;DHT22;67256;51.154;4.164;2024-01-30T06:27:16;11.70;96.70
76293;DHT22;67256;51.154;4.164;2024-01-30T06:29:43;11.70;96.80
76293;DHT22;67256;51.154;4.164;2024-01-30T06:32:09;11.70;96.60
76293;DHT22;67256;51.154;4.164;2024-01-30T06:34:35;11.80;96.70
76293;DHT22;67256;51.154;4.164;2024-01-30T06:37:00;11.90;96.60
76293;DHT22;67256;51.154;4.164;2024-01-30T06:39:26;11.80;96.50
76293;DHT22;67256;51.154;4.164;2024-01-30T06:41:53;11.90;96.50
76293;DHT22;67256;51.154;4.164;2024-01-30T06:44:18;11.80;96.60
76293;DHT22;67256;51.154;4.164;2024-01-30T06:46:44;11.90;96.50
76293;DHT22;67256;51.154;4.164;2024-01-30T06:49:10;12.00;96.40
76293;DHT22;67256;51.154;4.164;2024-01-30T06:51:36;12.00;96.20
76293;DHT22;67256;51.154;4.164;2024-01-30T06:54:01;12.00;96.20
76293;DHT22;67256;51.154;4.164;2024-01-30T06:56:28;11.90;96.50
76293;DHT22;67256;51.154;4.164;2024-01-30T06:58:54;11.90;96.50
76293;DHT22;67256;51.154;4.164;2024-01-30T07:01:19;12.00;96.30
76293;DHT22;67256;51.154;4.164;2024-01-30T07:03:46;12.00;96.30
76293;DHT22;67256;51.154;4.164;2024-01-30T07:06:12;12.00;96.30
76293;DHT22;67256;51.154;4.164;2024-01-30T07:08:37;12.00;96.40
76293;DHT22;67256;51.154;4.164;2024-01-30T07:11:06;12.00;96.20
76293;DHT22;67256;51.154;4.164;2024-01-30T07:13:34;12.00;96.30
76293;DHT22;67256;51.154;4.164;2024-01-30T07:16:00;11.90;96.60
76293;DHT22;67256;51.154;4.164;2024-01-30T07:18:25;11.90;96.70
76293;DHT22;67256;51.154;4.164;2024-01-30T07:20:51;11.90;96.70
76293;DHT22;67256;51.154;4.164;2024-01-30T07:23:17;11.90;96.70
76293;DHT22;67256;51.154;4.164;2024-01-30T07:25:46;11.90;96.70
76293;DHT22;67256;51.154;4.164;2024-01-30T07:28:14;11.90;96.80
76293;DHT22;67256;51.154;4.164;2024-01-30T07:30:42;11.90;96.60
76293;DHT22;67256;51.154;4.164;2024-01-30T07:33:08;12.00;96.60
76293;DHT22;67256;51.154;4.164;2024-01-30T07:35:34;12.00;96.60
76293;DHT22;67256;51.154;4.164;2024-01-30T07:38:00;12.00;96.80
76293;DHT22;67256;51.154;4.164;2024-01-30T07:40:26;12.00;96.80
76293;DHT22;67256;51.154;4.164;2024-01-30T07:42:53;12.00;96.70
76293;DHT22;67256;51.154;4.164;2024-01-30T07:45:19;12.00;96.70
76293;DHT22;67256;51.154;4.164;2024-01-30T07:47:50;12.10;96.60
76293;DHT22;67256;51.154;4.164;2024-01-30T07:50:16;12.10;96.70
76293;DHT22;67256;51.154;4.164;2024-01-30T07:52:42;12.10;96.80
76293;DHT22;67256;51.154;4.164;2024-01-30T07:55:08;12.00;96.80
76293;DHT22;67256;51.154;4.164;2024-01-30T07:57:34;12.10;96.80
76293;DHT22;67256;51.154;4.164;2024-01-30T08:00:03;12.20;96.60
76293;DHT22;67256;51.154;4.164;2024-01-30T08:02:29;12.20;96.40
76293;DHT22;67256;51.154;4.164;2024-01-30T08:04:55;12.30;96.20
76293;DHT22;67256;51.154;4.164;2024-01-30T08:07:21;12.20;96.60
76293;DHT22;67256;51.154;4.164;2024-01-30T08:09:47;12.20;96.50
76293;DHT22;67256;51.154;4.164;2024-01-30T08:12:13;12.20;96.50
76293;DHT22;67256;51.154;4.164;2024-01-30T08:14:39;12.10;96.80
76293;DHT22;67256;51.154;4.164;2024-01-30T08:17:06;12.20;96.80
76293;DHT22;67256;51.154;4.164;2024-01-30T08:19:33;12.20;96.70
76293;DHT22;67256;51.154;4.164;2024-01-30T08:21:58;12.30;96.50
76293;DHT22;67256;51.154;4.164;2024-01-30T08:24:24;12.20;96.60
76293;DHT22;67256;51.154;4.164;2024-01-30T08:26:51;12.30;96.60
76293;DHT22;67256;51.154;4.164;2024-01-30T08:29:16;12.30;96.60
76293;DHT22;67256;51.154;4.164;2024-01-30T08:31:42;12.30;96.60
76293;DHT22;67256;51.154;4.164;2024-01-30T08:34:08;12.30;96.70
76293;DHT22;67256;51.154;4.164;2024-01-30T08:36:33;12.30;96.60
76293;DHT22;67256;51.154;4.164;2024-01-30T08:38:59;12.30;96.70
76293;DHT22;67256;51.154;4.164;2024-01-30T08:41:25;12.40;96.60
76293;DHT22;67256;51.154;4.164;2024-01-30T08:43:52;12.30;96.80
76293;DHT22;67256;51.154;4.164;2024-01-30T08:46:18;12.30;97.00
76293;DHT22;67256;51.154;4.164;2024-01-30T08:48:44;12.30;97.00
76293;DHT22;67256;51.154;4.164;2024-01-30T08:51:10;12.30;97.10
76293;DHT22;67256;51.154;4.164;2024-01-30T08:53:36;12.30;97.00
76293;DHT22;67256;51.154;4.164;2024-01-30T08:56:03;12.30;97.10
76293;DHT22;67256;51.154;4.164;2024-01-30T08:58:29;12.30;97.20
76293;DHT22;67256;51.154;4.164;2024-01-30T09:00:55;12.30;97.10
76293;DHT22;67256;51.154;4.164;2024-01-30T09:03:20;12.30;97.00
76293;DHT22;67256;51.154;4.164;2024-01-30T09:05:46;12.40;97.00
76293;DHT22;67256;51.154;4.164;2024-01-30T09:08:12;12.40;96.90
76293;DHT22;67256;51.154;4.164;2024-01-30T09:10:37;12.40;97.00
76293;DHT22;67256;51.154;4.164;2024-01-30T09:13:03;12.40;97.30
76293;DHT22;67256;51.154;4.164;2024-01-30T09:15:29;12.50;97.10
76293;DHT22;67256;51.154;4.164;2024-01-30T09:17:55;12.50;97.00
76293;DHT22;67256;51.154;4.164;2024-01-30T09:20:20;12.50;97.20
76293;DHT22;67256;51.154;4.164;2024-01-30T09:22:48;12.50;97.30
76293;DHT22;67256;51.154;4.164;2024-01-30T09:25:15;12.50;97.20
76293;DHT22;67256;51.154;4.164;2024-01-30T09:27:40;12.60;97.00
76293;DHT22;67256;51.154;4.164;2024-01-30T09:30:07;12.60;97.20
76293;DHT22;67256;51.154;4.164;2024-01-30T09:32:32;12.70;97.10
76293;DHT22;67256;51.154;4.164;2024-01-30T09:34:58;12.80;96.90
76293;DHT22;67256;51.154;4.164;2024-01-30T09:37:24;12.80;96.80
76293;DHT22;67256;51.154;4.164;2024-01-30T09:39:49;12.70;97.20
76293;DHT22;67256;51.154;4.164;2024-01-30T09:42:34;12.70;97.30
76293;DHT22;67256;51.154;4.164;2024-01-30T09:45:04;12.70;97.20
76293;DHT22;67256;51.154;4.164;2024-01-30T09:47:32;12.80;97.00
76293;DHT22;67256;51.154;4.164;2024-01-30T09:50:00;12.80;97.10
76293;DHT22;67256;51.154;4.164;2024-01-30T09:52:29;12.70;97.10
76293;DHT22;67256;51.154;4.164;2024-01-30T09:54:55;12.70;97.20
76293;DHT22;67256;51.154;4.164;2024-01-30T09:57:21;12.60;97.10
76293;DHT22;67256;51.154;4.164;2024-01-30T09:59:47;12.60;97.50
76293;DHT22;67256;51.154;4.164;2024-01-30T10:02:13;12.70;97.30
76293;DHT22;67256;51.154;4.164;2024-01-30T10:04:39;12.90;97.00
76293;DHT22;67256;51.154;4.164;2024-01-30T10:07:05;12.80;96.90
76293;DHT22;67256;51.154;4.164;2024-01-30T10:09:34;12.80;96.60
76293;DHT22;67256;51.154;4.164;2024-01-30T10:12:01;12.70;96.30
76293;DHT22;67256;51.154;4.164;2024-01-30T10:14:27;12.70;96.20
76293;DHT22;67256;51.154;4.164;2024-01-30T10:16:54;12.60;96.20
76293;DHT22;67256;51.154;4.164;2024-01-30T10:19:20;12.50;96.20
76293;DHT22;67256;51.154;4.164;2024-01-30T10:21:46;12.40;95.90
76293;DHT22;67256;51.154;4.164;2024-01-30T10:24:13;12.50;95.70
76293;DHT22;67256;51.154;4.164;2024-01-30T10:26:39;12.50;94.90
76293;DHT22;67256;51.154;4.164;2024-01-30T10:29:05;12.40;94.30
76293;DHT22;67256;51.154;4.164;2024-01-30T10:31:31;12.40;93.30
76293;DHT22;67256;51.154;4.164;2024-01-30T10:33:56;12.20;93.30
76293;DHT22;67256;51.154;4.164;2024-01-30T10:36:28;12.20;93.80
76293;DHT22;67256;51.154;4.164;2024-01-30T10:38:55;12.30;93.40
76293;DHT22;67256;51.154;4.164;2024-01-30T10:41:27;12.30;93.00
76293;DHT22;67256;51.154;4.164;2024-01-30T10:44:03;12.20;92.80
76293;DHT22;67256;51.154;4.164;2024-01-30T10:46:33;12.10;92.90
76293;DHT22;67256;51.154;4.164;2024-01-30T10:49:00;12.10;93.30
76293;DHT22;67256;51.154;4.164;2024-01-30T10:51:28;12.20;92.90
76293;DHT22;67256;51.154;4.164;2024-01-30T10:53:53;12.10;93.20
76293;DHT22;67256;51.154;4.164;2024-01-30T10:56:24;12.20;93.50
76293;DHT22;67256;51.154;4.164;2024-01-30T10:58:50;12.30;93.10
76293;DHT22;67256;51.154;4.164;2024-01-30T11:01:19;12.30;93.00
76293;DHT22;67256;51.154;4.164;2024-01-30T11:03:57;12.20;93.20
76293;DHT22;67256;51.154;4.164;2024-01-30T11:06:24;12.20;92.90
76293;DHT22;67256;51.154;4.164;2024-01-30T11:09:04;12.20;93.00
76293;DHT22;67256;51.154;4.164;2024-01-30T11:11:51;12.30;92.80
76293;DHT22;67256;51.154;4.164;2024-01-30T11:14:23;12.30;92.70
76293;DHT22;67256;51.154;4.164;2024-01-30T11:16:49;12.50;92.70
76293;DHT22;67256;51.154;4.164;2024-01-30T11:19:15;12.50;92.70
76293;DHT22;67256;51.154;4.164;2024-01-30T11:21:44;12.40;92.50
76293;DHT22;67256;51.154;4.164;2024-01-30T11:24:10;12.40;91.70
76293;DHT22;67256;51.154;4.164;2024-01-30T11:26:36;12.50;91.80
76293;DHT22;67256;51.154;4.164;2024-01-30T11:29:03;12.60;91.70
76293;DHT22;67256;51.154;4.164;2024-01-30T11:31:30;12.60;91.00
76293;DHT22;67256;51.154;4.164;2024-01-30T11:33:56;12.50;91.30
76293;DHT22;67256;51.154;4.164;2024-01-30T11:36:26;12.60;90.90
76293;DHT22;67256;51.154;4.164;2024-01-30T11:38:52;12.40;90.80
76293;DHT22;67256;51.154;4.164;2024-01-30T11:41:19;12.30;91.00
76293;DHT22;67256;51.154;4.164;2024-01-30T11:43:53;12.30;91.30
76293;DHT22;67256;51.154;4.164;2024-01-30T11:46:19;12.20;91.40
76293;DHT22;67256;51.154;4.164;2024-01-30T11:48:44;12.20;91.60
76293;DHT22;67256;51.154;4.164;2024-01-30T11:51:12;12.10;91.70
76293;DHT22;67256;51.154;4.164;2024-01-30T11:53:38;12.30;91.40
76293;DHT22;67256;51.154;4.164;2024-01-30T11:56:06;12.30;91.50
76293;DHT22;67256;51.154;4.164;2024-01-30T11:58:31;12.20;91.50
76293;DHT22;67256;51.154;4.164;2024-01-30T12:00:58;12.30;91.50
76293;DHT22;67256;51.154;4.164;2024-01-30T12:03:24;12.50;91.10
76293;DHT22;67256;51.154;4.164;2024-01-30T12:05:59;12.60;90.90
76293;DHT22;67256;51.154;4.164;2024-01-30T12:08:24;12.60;90.70
76293;DHT22;67256;51.154;4.164;2024-01-30T12:10:59;12.40;90.90
76293;DHT22;67256;51.154;4.164;2024-01-30T12:13:28;12.30;91.00
76293;DHT22;67256;51.154;4.164;2024-01-30T12:15:54;12.40;90.90
76293;DHT22;67256;51.154;4.164;2024-01-30T12:18:20;12.40;90.90
76293;DHT22;67256;51.154;4.164;2024-01-30T12:20:57;12.40;90.50
76293;DHT22;67256;51.154;4.164;2024-01-30T12:23:23;12.30;90.80
76293;DHT22;67256;51.154;4.164;2024-01-30T12:25:51;12.40;91.10
76293;DHT22;67256;51.154;4.164;2024-01-30T12:28:17;12.40;91.00
76293;DHT22;67256;51.154;4.164;2024-01-30T12:30:43;12.40;91.10
76293;DHT22;67256;51.154;4.164;2024-01-30T12:33:09;12.20;91.30
76293;DHT22;67256;51.154;4.164;2024-01-30T12:35:35;12.10;91.70
76293;DHT22;67256;51.154;4.164;2024-01-30T12:38:02;12.20;91.60
76293;DHT22;67256;51.154;4.164;2024-01-30T12:40:28;12.20;91.40
76293;DHT22;67256;51.154;4.164;2024-01-30T12:42:54;12.20;91.70
76293;DHT22;67256;51.154;4.164;2024-01-30T12:45:20;12.30;91.60
76293;DHT22;67256;51.154;4.164;2024-01-30T12:47:48;12.20;91.80
76293;DHT22;67256;51.154;4.164;2024-01-30T12:50:13;12.30;91.60
76293;DHT22;67256;51.154;4.164;2024-01-30T12:52:42;12.00;91.40
76293;DHT22;67256;51.154;4.164;2024-01-30T12:55:07;11.90;91.90
76293;DHT22;67256;51.154;4.164;2024-01-30T12:57:33;11.90;92.00
76293;DHT22;67256;51.154;4.164;2024-01-30T12:59:59;11.80;92.40
76293;DHT22;67256;51.154;4.164;2024-01-30T13:02:24;11.70;92.60
76293;DHT22;67256;51.154;4.164;2024-01-30T13:04:51;11.70;92.60
76293;DHT22;67256;51.154;4.164;2024-01-30T13:07:17;11.60;92.50
76293;DHT22;67256;51.154;4.164;2024-01-30T13:09:43;11.60;92.70
76293;DHT22;67256;51.154;4.164;2024-01-30T13:12:09;11.50;92.80
76293;DHT22;67256;51.154;4.164;2024-01-30T13:14:35;11.60;92.00
76293;DHT22;67256;51.154;4.164;2024-01-30T13:17:00;11.60;92.00
76293;DHT22;67256;51.154;4.164;2024-01-30T13:19:26;11.50;92.10
76293;DHT22;67256;51.154;4.164;2024-01-30T13:21:53;11.30;92.20
76293;DHT22;67256;51.154;4.164;2024-01-30T13:24:18;11.40;91.90
76293;DHT22;67256;51.154;4.164;2024-01-30T13:26:47;11.20;92.50
76293;DHT22;67256;51.154;4.164;2024-01-30T13:29:13;11.30;92.30
76293;DHT22;67256;51.154;4.164;2024-01-30T13:31:38;11.30;92.10
76293;DHT22;67256;51.154;4.164;2024-01-30T13:34:05;11.20;92.00
76293;DHT22;67256;51.154;4.164;2024-01-30T13:36:32;11.20;92.20
76293;DHT22;67256;51.154;4.164;2024-01-30T13:38:58;11.20;91.60
76293;DHT22;67256;51.154;4.164;2024-01-30T13:41:23;11.10;92.40
76293;DHT22;67256;51.154;4.164;2024-01-30T13:43:50;11.10;92.10
76293;DHT22;67256;51.154;4.164;2024-01-30T13:46:15;11.20;92.30
76293;DHT22;67256;51.154;4.164;2024-01-30T13:48:41;11.00;92.10
76293;DHT22;67256;51.154;4.164;2024-01-30T13:51:07;11.10;92.40
76293;DHT22;67256;51.154;4.164;2024-01-30T13:53:32;11.20;92.20
76293;DHT22;67256;51.154;4.164;2024-01-30T13:55:58;11.30;92.30
76293;DHT22;67256;51.154;4.164;2024-01-30T13:58:24;11.30;92.30
76293;DHT22;67256;51.154;4.164;2024-01-30T14:00:50;11.40;92.30
76293;DHT22;67256;51.154;4.164;2024-01-30T14:03:16;11.60;92.10
76293;DHT22;67256;51.154;4.164;2024-01-30T14:05:41;11.40;91.90
76293;DHT22;67256;51.154;4.164;2024-01-30T14:08:07;11.30;92.30
76293;DHT22;67256;51.154;4.164;2024-01-30T14:10:34;11.20;92.50
76293;DHT22;67256;51.154;4.164;2024-01-30T14:12:59;11.40;92.30
76293;DHT22;67256;51.154;4.164;2024-01-30T14:15:25;11.20;92.40
76293;DHT22;67256;51.154;4.164;2024-01-30T14:17:51;11.40;92.20
76293;DHT22;67256;51.154;4.164;2024-01-30T14:20:17;11.40;92.10
76293;DHT22;67256;51.154;4.164;2024-01-30T14:22:43;11.50;91.90
76293;DHT22;67256;51.154;4.164;2024-01-30T14:25:09;11.60;91.60
76293;DHT22;67256;51.154;4.164;2024-01-30T14:27:36;11.60;91.70
76293;DHT22;67256;51.154;4.164;2024-01-30T14:30:02;11.60;91.80
76293;DHT22;67256;51.154;4.164;2024-01-30T14:32:28;11.60;91.80
76293;DHT22;67256;51.154;4.164;2024-01-30T14:34:54;11.50;92.10
76293;DHT22;67256;51.154;4.164;2024-01-30T14:37:23;11.60;91.80
76293;DHT22;67256;51.154;4.164;2024-01-30T14:39:49;11.50;92.00
76293;DHT22;67256;51.154;4.164;2024-01-30T14:42:15;11.50;91.80
76293;DHT22;67256;51.154;4.164;2024-01-30T14:44:42;11.30;92.20
76293;DHT22;67256;51.154;4.164;2024-01-30T14:47:08;11.30;92.40
76293;DHT22;67256;51.154;4.164;2024-01-30T14:49:34;11.00;92.70
76293;DHT22;67256;51.154;4.164;2024-01-30T14:52:00;11.00;92.90
76293;DHT22;67256;51.154;4.164;2024-01-30T14:54:26;11.10;92.80
76293;DHT22;67256;51.154;4.164;2024-01-30T14:56:53;11.20;92.60
76293;DHT22;67256;51.154;4.164;2024-01-30T14:59:19;11.20;92.70
76293;DHT22;67256;51.154;4.164;2024-01-30T15:01:45;11.30;92.40
76293;DHT22;67256;51.154;4.164;2024-01-30T15:04:10;11.20;92.90
76293;DHT22;67256;51.154;4.164;2024-01-30T15:06:37;11.20;93.20
76293;DHT22;67256;51.154;4.164;2024-01-30T15:09:02;11.00;93.40
76293;DHT22;67256;51.154;4.164;2024-01-30T15:11:28;10.90;93.70
76293;DHT22;67256;51.154;4.164;2024-01-30T15:13:54;11.00;93.40
76293;DHT22;67256;51.154;4.164;2024-01-30T15:16:20;11.00;93.60
76293;DHT22;67256;51.154;4.164;2024-01-30T15:18:45;11.00;93.70
76293;DHT22;67256;51.154;4.164;2024-01-30T15:21:11;10.90;93.90
76293;DHT22;67256;51.154;4.164;2024-01-30T15:23:37;10.80;94.50
76293;DHT22;67256;51.154;4.164;2024-01-30T15:26:03;10.80;94.50